sensor_id;sensor_type;location;lat;lon;timestamp;pressure;altitude;pressure_sealevel;temperature;humidity
57644;BME280;43474;46.510;6.686;2023-07-29T00:01:35;96152.63;;;23.85;75.01
57644;BME280;43474;46.510;6.686;2023-07-29T00:04:01;96213.75;;;23.86;74.70
57644;BME280;43474;46.510;6.686;2023-07-29T00:06:27;96275.81;;;23.91;74.19
57644;BME280;43474;46.510;6.686;2023-07-29T00:08:53;96235.88;;;23.88;74.31
57644;BME280;43474;46.510;6.686;2023-07-29T00:11:18;96206.75;;;23.85;74.57
57644;BME280;43474;46.510;6.686;2023-07-29T00:13:44;96183.88;;;23.83;74.61
57644;BME280;43474;46.510;6.686;2023-07-29T00:16:10;96165.72;;;23.83;74.74
57644;BME280;43474;46.510;6.686;2023-07-29T00:18:36;96151.38;;;23.83;75.06
57644;BME280;43474;46.510;6.686;2023-07-29T00:21:01;96140.22;;;23.84;75.29
57644;BME280;43474;46.510;6.686;2023-07-29T00:23:27;96138.16;;;23.81;76.25
57644;BME280;43474;46.510;6.686;2023-07-29T00:25:52;96139.28;;;23.80;77.49
57644;BME280;43474;46.510;6.686;2023-07-29T00:28:18;96137.72;;;23.79;78.03
57644;BME280;43474;46.510;6.686;2023-07-29T00:30:44;96131.50;;;23.79;78.53
57644;BME280;43474;46.510;6.686;2023-07-29T00:33:09;96118.78;;;23.79;79.76
57644;BME280;43474;46.510;6.686;2023-07-29T00:35:35;96127.69;;;23.80;79.50
57644;BME280;43474;46.510;6.686;2023-07-29T00:38:00;96125.31;;;23.78;79.86
57644;BME280;43474;46.510;6.686;2023-07-29T00:40:28;96133.09;;;23.80;79.65
57644;BME280;43474;46.510;6.686;2023-07-29T00:42:54;96138.16;;;23.81;77.91
57644;BME280;43474;46.510;6.686;2023-07-29T00:45:20;96130.03;;;23.81;78.39
57644;BME280;43474;46.510;6.686;2023-07-29T00:47:46;96133.53;;;23.82;78.59
57644;BME280;43474;46.510;6.686;2023-07-29T00:50:13;96133.09;;;23.80;79.96
57644;BME280;43474;46.510;6.686;2023-07-29T00:52:40;96144.72;;;23.80;80.29
57644;BME280;43474;46.510;6.686;2023-07-29T00:55:06;96138.84;;;23.78;80.47
57644;BME280;43474;46.510;6.686;2023-07-29T00:57:32;96139.28;;;23.80;81.06
57644;BME280;43474;46.510;6.686;2023-07-29T00:59:59;96133.88;;;23.80;81.15
57644;BME280;43474;46.510;6.686;2023-07-29T01:02:26;96138.50;;;23.80;80.71
57644;BME280;43474;46.510;6.686;2023-07-29T01:04:53;96140.75;;;23.78;81.18
57644;BME280;43474;46.510;6.686;2023-07-29T01:10:09;96136.59;;;23.80;81.43
57644;BME280;43474;46.510;6.686;2023-07-29T01:12:51;96131.97;;;23.81;80.87
57644;BME280;43474;46.510;6.686;2023-07-29T01:15:23;96134.66;;;23.81;80.35
57644;BME280;43474;46.510;6.686;2023-07-29T01:17:54;96128.13;;;23.82;79.69
57644;BME280;43474;46.510;6.686;2023-07-29T01:20:21;96137.38;;;23.81;81.12
57644;BME280;43474;46.510;6.686;2023-07-29T01:22:49;96150.91;;;23.81;81.80
57644;BME280;43474;46.510;6.686;2023-07-29T01:25:15;96145.97;;;23.83;80.56
57644;BME280;43474;46.510;6.686;2023-07-29T01:27:45;96151.69;;;23.81;79.98
57644;BME280;43474;46.510;6.686;2023-07-29T01:30:11;96148.69;;;23.83;80.24
57644;BME280;43474;46.510;6.686;2023-07-29T01:35:27;96137.84;;;23.83;79.40
57644;BME280;43474;46.510;6.686;2023-07-29T01:38:30;96133.53;;;23.82;80.64
57644;BME280;43474;46.510;6.686;2023-07-29T01:41:00;96140.56;;;23.83;80.98
57644;BME280;43474;46.510;6.686;2023-07-29T01:43:28;96130.84;;;23.82;80.82
57644;BME280;43474;46.510;6.686;2023-07-29T01:45:54;96138.97;;;23.82;80.17
57644;BME280;43474;46.510;6.686;2023-07-29T01:48:20;96142.16;;;23.84;79.76
57644;BME280;43474;46.510;6.686;2023-07-29T01:50:45;96133.25;;;23.83;79.83
57644;BME280;43474;46.510;6.686;2023-07-29T01:53:11;96151.84;;;23.85;79.94
57644;BME280;43474;46.510;6.686;2023-07-29T01:55:44;96148.00;;;23.86;80.77
57644;BME280;43474;46.510;6.686;2023-07-29T01:58:11;96137.53;;;23.84;80.55
57644;BME280;43474;46.510;6.686;2023-07-29T02:00:36;96141.03;;;23.85;80.41
57644;BME280;43474;46.510;6.686;2023-07-29T02:03:02;96134.81;;;23.84;80.10
57644;BME280;43474;46.510;6.686;2023-07-29T02:05:27;96146.44;;;23.85;81.14
57644;BME280;43474;46.510;6.686;2023-07-29T02:07:53;96118.13;;;23.82;81.00
57644;BME280;43474;46.510;6.686;2023-07-29T02:10:19;96134.81;;;23.84;81.16
57644;BME280;43474;46.510;6.686;2023-07-29T02:12:44;96116.22;;;23.83;80.98
57644;BME280;43474;46.510;6.686;2023-07-29T02:15:10;96121.63;;;23.83;81.52
57644;BME280;43474;46.510;6.686;2023-07-29T02:17:36;96132.09;;;23.84;81.99
57644;BME280;43474;46.510;6.686;2023-07-29T02:20:02;96141.81;;;23.85;82.31
57644;BME280;43474;46.510;6.686;2023-07-29T02:22:29;96139.44;;;23.84;81.19
57644;BME280;43474;46.510;6.686;2023-07-29T02:24:55;96135.59;;;23.85;81.79
57644;BME280;43474;46.510;6.686;2023-07-29T02:27:20;96135.59;;;23.85;82.15
57644;BME280;43474;46.510;6.686;2023-07-29T02:29:46;96119.72;;;23.83;81.35
57644;BME280;43474;46.510;6.686;2023-07-29T02:32:11;96132.44;;;23.83;82.05
57644;BME280;43474;46.510;6.686;2023-07-29T02:34:37;96139.09;;;23.85;82.22
57644;BME280;43474;46.510;6.686;2023-07-29T02:37:03;96148.00;;;23.86;82.07
57644;BME280;43474;46.510;6.686;2023-07-29T02:39:28;96140.69;;;23.86;81.79
57644;BME280;43474;46.510;6.686;2023-07-29T02:41:54;96143.72;;;23.85;83.04
57644;BME280;43474;46.510;6.686;2023-07-29T02:44:21;96148.00;;;23.86;81.94
57644;BME280;43474;46.510;6.686;2023-07-29T02:46:46;96138.31;;;23.85;82.03
57644;BME280;43474;46.510;6.686;2023-07-29T02:49:12;96141.03;;;23.85;82.25
57644;BME280;43474;46.510;6.686;2023-07-29T02:51:37;96131.78;;;23.86;81.86
57644;BME280;43474;46.510;6.686;2023-07-29T02:54:03;96127.16;;;23.86;81.94
57644;BME280;43474;46.510;6.686;2023-07-29T02:56:29;96130.97;;;23.85;82.06
57644;BME280;43474;46.510;6.686;2023-07-29T02:58:56;96141.03;;;23.85;82.64
57644;BME280;43474;46.510;6.686;2023-07-29T03:01:22;96145.31;;;23.86;82.36
57644;BME280;43474;46.510;6.686;2023-07-29T03:03:48;96149.13;;;23.85;82.22
57644;BME280;43474;46.510;6.686;2023-07-29T03:06:14;96143.38;;;23.86;82.12
57644;BME280;43474;46.510;6.686;2023-07-29T03:08:39;96150.72;;;23.86;82.10
57644;BME280;43474;46.510;6.686;2023-07-29T03:11:07;96143.38;;;23.86;82.15
57644;BME280;43474;46.510;6.686;2023-07-29T03:13:33;96151.50;;;23.86;82.25
57644;BME280;43474;46.510;6.686;2023-07-29T03:16:09;96140.69;;;23.86;82.83
57644;BME280;43474;46.510;6.686;2023-07-29T03:18:35;96137.53;;;23.84;82.63
57644;BME280;43474;46.510;6.686;2023-07-29T03:21:02;96139.88;;;23.86;83.39
57644;BME280;43474;46.510;6.686;2023-07-29T03:23:28;96139.09;;;23.85;83.25
57644;BME280;43474;46.510;6.686;2023-07-29T03:25:58;96135.59;;;23.85;83.30
57644;BME280;43474;46.510;6.686;2023-07-29T03:28:29;96143.72;;;23.85;83.32
57644;BME280;43474;46.510;6.686;2023-07-29T03:30:57;96145.00;;;23.87;84.63
57644;BME280;43474;46.510;6.686;2023-07-29T03:33:24;96132.09;;;23.84;84.07
57644;BME280;43474;46.510;6.686;2023-07-29T03:35:51;96133.69;;;23.85;83.80
57644;BME280;43474;46.510;6.686;2023-07-29T03:38:16;96117.44;;;23.85;83.55
57644;BME280;43474;46.510;6.686;2023-07-29T03:40:43;96112.03;;;23.85;83.81
57644;BME280;43474;46.510;6.686;2023-07-29T03:43:09;96117.44;;;23.85;83.63
57644;BME280;43474;46.510;6.686;2023-07-29T03:45:35;96134.47;;;23.86;84.15
57644;BME280;43474;46.510;6.686;2023-07-29T03:48:02;96138.75;;;23.87;84.35
57644;BME280;43474;46.510;6.686;2023-07-29T03:50:29;96140.69;;;23.86;84.25
57644;BME280;43474;46.510;6.686;2023-07-29T03:52:55;96141.81;;;23.85;83.90
57644;BME280;43474;46.510;6.686;2023-07-29T03:55:21;96139.88;;;23.86;84.37
57644;BME280;43474;46.510;6.686;2023-07-29T03:57:46;96141.81;;;23.85;84.31
57644;BME280;43474;46.510;6.686;2023-07-29T04:00:12;96145.31;;;23.86;84.55
57644;BME280;43474;46.510;6.686;2023-07-29T04:02:38;96142.59;;;23.86;84.06
57644;BME280;43474;46.510;6.686;2023-07-29T04:05:04;96141.81;;;23.85;84.33
57644;BME280;43474;46.510;6.686;2023-07-29T04:07:31;96148.81;;;23.86;84.50
57644;BME280;43474;46.510;6.686;2023-07-29T04:09:57;96139.88;;;23.86;84.40
57644;BME280;43474;46.510;6.686;2023-07-29T04:12:24;96151.50;;;23.86;84.08
57644;BME280;43474;46.510;6.686;2023-07-29T04:14:50;96149.13;;;23.85;84.65
57644;BME280;43474;46.510;6.686;2023-07-29T04:17:15;96165.03;;;23.86;84.38
57644;BME280;43474;46.510;6.686;2023-07-29T04:19:41;96153.44;;;23.86;84.14
57644;BME280;43474;46.510;6.686;2023-07-29T04:22:06;96169.66;;;23.86;84.69
57644;BME280;43474;46.510;6.686;2023-07-29T04:24:32;96179.34;;;23.87;84.37
57644;BME280;43474;46.510;6.686;2023-07-29T04:26:57;96180.03;;;23.84;84.57
57644;BME280;43474;46.510;6.686;2023-07-29T04:29:23;96187.47;;;23.87;84.68
57644;BME280;43474;46.510;6.686;2023-07-29T04:31:50;96189.41;;;23.86;84.37
57644;BME280;43474;46.510;6.686;2023-07-29T04:34:15;96182.41;;;23.85;84.47
57644;BME280;43474;46.510;6.686;2023-07-29T04:36:41;96195.94;;;23.85;84.29
57644;BME280;43474;46.510;6.686;2023-07-29T04:39:06;96194.03;;;23.86;84.29
57644;BME280;43474;46.510;6.686;2023-07-29T04:41:32;96193.22;;;23.85;84.48
57644;BME280;43474;46.510;6.686;2023-07-29T04:43:58;96191.31;;;23.86;84.64
57644;BME280;43474;46.510;6.686;2023-07-29T04:46:24;96190.53;;;23.85;84.62
57644;BME280;43474;46.510;6.686;2023-07-29T04:48:49;96187.81;;;23.85;84.32
57644;BME280;43474;46.510;6.686;2023-07-29T04:51:14;96186.25;;;23.84;85.16
57644;BME280;43474;46.510;6.686;2023-07-29T04:53:40;96189.72;;;23.85;85.07
57644;BME280;43474;46.510;6.686;2023-07-29T04:56:05;96187.03;;;23.85;85.15
57644;BME280;43474;46.510;6.686;2023-07-29T04:58:31;96184.31;;;23.85;84.97
57644;BME280;43474;46.510;6.686;2023-07-29T05:01:00;96182.41;;;23.85;84.66
57644;BME280;43474;46.510;6.686;2023-07-29T05:03:25;96172.38;;;23.86;84.93
57644;BME280;43474;46.510;6.686;2023-07-29T05:05:51;96175.41;;;23.84;85.04
57644;BME280;43474;46.510;6.686;2023-07-29T05:08:18;96178.91;;;23.85;84.92
57644;BME280;43474;46.510;6.686;2023-07-29T05:10:44;96179.69;;;23.85;85.30
57644;BME280;43474;46.510;6.686;2023-07-29T05:13:10;96180.19;;;23.87;85.36
57644;BME280;43474;46.510;6.686;2023-07-29T05:15:35;96181.63;;;23.85;85.18
57644;BME280;43474;46.510;6.686;2023-07-29T05:18:01;96183.69;;;23.88;85.77
57644;BME280;43474;46.510;6.686;2023-07-29T05:20:26;96178.25;;;23.88;85.59
57644;BME280;43474;46.510;6.686;2023-07-29T05:22:52;96183.34;;;23.89;85.74
57644;BME280;43474;46.510;6.686;2023-07-29T05:25:18;96172.06;;;23.87;86.63
57644;BME280;43474;46.510;6.686;2023-07-29T05:27:43;96179.84;;;23.89;86.94
57644;BME280;43474;46.510;6.686;2023-07-29T05:30:09;96176.81;;;23.90;87.22
57644;BME280;43474;46.510;6.686;2023-07-29T05:32:35;96173.91;;;23.95;87.00
57644;BME280;43474;46.510;6.686;2023-07-29T05:35:00;96186.13;;;24.02;86.77
57644;BME280;43474;46.510;6.686;2023-07-29T05:37:26;96174.94;;;24.12;86.06
57644;BME280;43474;46.510;6.686;2023-07-29T05:39:51;96174.50;;;24.52;84.73
57644;BME280;43474;46.510;6.686;2023-07-29T05:42:17;96179.22;;;24.34;84.96
57644;BME280;43474;46.510;6.686;2023-07-29T05:44:42;96179.63;;;24.23;85.85
57644;BME280;43474;46.510;6.686;2023-07-29T05:47:08;96176.13;;;24.44;85.04
57644;BME280;43474;46.510;6.686;2023-07-29T05:49:33;96172.97;;;24.42;86.08
57644;BME280;43474;46.510;6.686;2023-07-29T05:51:59;96172.63;;;24.22;85.70
57644;BME280;43474;46.510;6.686;2023-07-29T05:54:24;96175.91;;;24.28;85.95
57644;BME280;43474;46.510;6.686;2023-07-29T05:56:50;96165.88;;;24.29;85.55
57644;BME280;43474;46.510;6.686;2023-07-29T05:59:15;96170.91;;;24.18;86.45
57644;BME280;43474;46.510;6.686;2023-07-29T06:01:41;96172.22;;;24.12;87.31
57644;BME280;43474;46.510;6.686;2023-07-29T06:04:06;96172.06;;;24.08;87.65
57644;BME280;43474;46.510;6.686;2023-07-29T06:06:32;96183.22;;;24.07;87.86
57644;BME280;43474;46.510;6.686;2023-07-29T06:08:57;96182.75;;;24.05;88.02
57644;BME280;43474;46.510;6.686;2023-07-29T06:11:23;96188.19;;;24.05;88.41
57644;BME280;43474;46.510;6.686;2023-07-29T06:13:49;96192.81;;;24.04;87.81
57644;BME280;43474;46.510;6.686;2023-07-29T06:16:14;96190.88;;;24.05;87.81
57644;BME280;43474;46.510;6.686;2023-07-29T06:18:40;96191.53;;;24.02;87.69
57644;BME280;43474;46.510;6.686;2023-07-29T06:21:05;96201.25;;;24.03;88.24
57644;BME280;43474;46.510;6.686;2023-07-29T06:23:35;96194.56;;;24.00;90.73
57644;BME280;43474;46.510;6.686;2023-07-29T06:26:01;96193.34;;;23.97;92.57
57644;BME280;43474;46.510;6.686;2023-07-29T06:28:27;96195.56;;;23.95;93.53
57644;BME280;43474;46.510;6.686;2023-07-29T06:30:52;96197.47;;;23.95;92.83
57644;BME280;43474;46.510;6.686;2023-07-29T06:33:18;96197.97;;;23.97;93.08
57644;BME280;43474;46.510;6.686;2023-07-29T06:35:44;96205.59;;;23.95;94.57
57644;BME280;43474;46.510;6.686;2023-07-29T06:38:09;96211.19;;;23.90;96.01
57644;BME280;43474;46.510;6.686;2023-07-29T06:40:35;96208.50;;;23.90;97.67
57644;BME280;43474;46.510;6.686;2023-07-29T06:43:00;96211.53;;;23.88;98.53
57644;BME280;43474;46.510;6.686;2023-07-29T06:45:26;96211.34;;;23.93;97.17
57644;BME280;43474;46.510;6.686;2023-07-29T06:47:51;96203.56;;;23.92;98.60
57644;BME280;43474;46.510;6.686;2023-07-29T06:50:17;96191.91;;;23.91;98.30
57644;BME280;43474;46.510;6.686;2023-07-29T06:52:43;96193.38;;;23.89;100.00
57644;BME280;43474;46.510;6.686;2023-07-29T06:55:09;96187.63;;;23.90;99.75
57644;BME280;43474;46.510;6.686;2023-07-29T06:57:34;96185.41;;;23.92;99.81
57644;BME280;43474;46.510;6.686;2023-07-29T07:00:00;96182.34;;;23.94;99.08
57644;BME280;43474;46.510;6.686;2023-07-29T07:02:26;96186.19;;;23.93;99.24
57644;BME280;43474;46.510;6.686;2023-07-29T07:04:52;96189.34;;;23.95;100.00
57644;BME280;43474;46.510;6.686;2023-07-29T07:07:17;96191.72;;;23.96;100.00
57644;BME280;43474;46.510;6.686;2023-07-29T07:09:43;96185.84;;;23.94;100.00
57644;BME280;43474;46.510;6.686;2023-07-29T07:12:08;96190.47;;;23.94;100.00
57644;BME280;43474;46.510;6.686;2023-07-29T07:14:34;96181.56;;;23.93;100.00
57644;BME280;43474;46.510;6.686;2023-07-29T07:16:59;96184.63;;;23.92;100.00
57644;BME280;43474;46.510;6.686;2023-07-29T07:19:25;96189.69;;;23.93;100.00
57644;BME280;43474;46.510;6.686;2023-07-29T07:21:50;96188.56;;;23.94;100.00
57644;BME280;43474;46.510;6.686;2023-07-29T07:24:16;96195.09;;;23.93;100.00
57644;BME280;43474;46.510;6.686;2023-07-29T07:26:41;96199.72;;;23.93;100.00
57644;BME280;43474;46.510;6.686;2023-07-29T07:29:07;96190.47;;;23.94;100.00
57644;BME280;43474;46.510;6.686;2023-07-29T07:31:33;96188.91;;;23.93;100.00
57644;BME280;43474;46.510;6.686;2023-07-29T07:33:59;96167.25;;;23.93;100.00
57644;BME280;43474;46.510;6.686;2023-07-29T07:36:26;96167.25;;;23.93;99.80
57644;BME280;43474;46.510;6.686;2023-07-29T07:38:51;96180.00;;;23.92;99.08
57644;BME280;43474;46.510;6.686;2023-07-29T07:41:16;96191.59;;;23.93;98.80
57644;BME280;43474;46.510;6.686;2023-07-29T07:43:42;96187.97;;;23.89;98.73
57644;BME280;43474;46.510;6.686;2023-07-29T07:46:08;96184.13;;;23.90;98.17
57644;BME280;43474;46.510;6.686;2023-07-29T07:48:33;96171.38;;;23.90;98.44
57644;BME280;43474;46.510;6.686;2023-07-29T07:50:59;96173.78;;;23.92;98.32
57644;BME280;43474;46.510;6.686;2023-07-29T07:53:25;96174.56;;;23.92;97.91
57644;BME280;43474;46.510;6.686;2023-07-29T07:55:51;96176.50;;;23.92;98.31
57644;BME280;43474;46.510;6.686;2023-07-29T07:58:17;96175.69;;;23.91;97.76
57644;BME280;43474;46.510;6.686;2023-07-29T08:00:42;96183.50;;;23.93;97.58
57644;BME280;43474;46.510;6.686;2023-07-29T08:03:08;96190.47;;;23.94;97.15
57644;BME280;43474;46.510;6.686;2023-07-29T08:05:34;96201.75;;;23.96;96.39
57644;BME280;43474;46.510;6.686;2023-07-29T08:07:59;96202.09;;;23.94;97.06
57644;BME280;43474;46.510;6.686;2023-07-29T08:10:25;96206.38;;;23.95;96.96
57644;BME280;43474;46.510;6.686;2023-07-29T08:12:53;96207.06;;;23.92;96.53
57644;BME280;43474;46.510;6.686;2023-07-29T08:15:19;96219.31;;;23.90;96.01
57644;BME280;43474;46.510;6.686;2023-07-29T08:17:45;96213.56;;;23.91;95.99
57644;BME280;43474;46.510;6.686;2023-07-29T08:20:10;96209.47;;;23.85;95.67
57644;BME280;43474;46.510;6.686;2023-07-29T08:22:38;96216.94;;;23.88;95.74
57644;BME280;43474;46.510;6.686;2023-07-29T08:25:03;96218.88;;;23.88;96.25
57644;BME280;43474;46.510;6.686;2023-07-29T08:27:29;96207.38;;;23.91;96.09
57644;BME280;43474;46.510;6.686;2023-07-29T08:29:54;96208.16;;;23.91;95.82
57644;BME280;43474;46.510;6.686;2023-07-29T08:32:20;96225.22;;;23.92;96.17
57644;BME280;43474;46.510;6.686;2023-07-29T08:34:46;96219.31;;;23.90;95.99
57644;BME280;43474;46.510;6.686;2023-07-29T08:37:12;96224.41;;;23.91;96.01
57644;BME280;43474;46.510;6.686;2023-07-29T08:39:38;96219.81;;;23.92;95.68
57644;BME280;43474;46.510;6.686;2023-07-29T08:42:07;96230.16;;;23.90;95.36
57644;BME280;43474;46.510;6.686;2023-07-29T08:44:41;96218.88;;;23.88;95.72
57644;BME280;43474;46.510;6.686;2023-07-29T08:47:07;96223.94;;;23.89;95.84
57644;BME280;43474;46.510;6.686;2023-07-29T08:49:33;96209.94;;;23.87;95.83
57644;BME280;43474;46.510;6.686;2023-07-29T08:51:59;96207.69;;;23.89;96.26
57644;BME280;43474;46.510;6.686;2023-07-29T08:54:26;96206.44;;;23.87;95.16
57644;BME280;43474;46.510;6.686;2023-07-29T08:56:52;96204.06;;;23.85;94.48
57644;BME280;43474;46.510;6.686;2023-07-29T08:59:17;96189.13;;;23.79;95.08
57644;BME280;43474;46.510;6.686;2023-07-29T09:01:44;96189.91;;;23.80;95.29
57644;BME280;43474;46.510;6.686;2023-07-29T09:04:10;96200.75;;;23.80;95.14
57644;BME280;43474;46.510;6.686;2023-07-29T09:06:36;96221.75;;;23.83;95.82
57644;BME280;43474;46.510;6.686;2023-07-29T09:09:03;96217.13;;;23.83;96.85
57644;BME280;43474;46.510;6.686;2023-07-29T09:11:30;96230.97;;;23.82;97.12
57644;BME280;43474;46.510;6.686;2023-07-29T09:13:56;96230.97;;;23.82;97.07
57644;BME280;43474;46.510;6.686;2023-07-29T09:16:22;96229.09;;;23.82;96.90
57644;BME280;43474;46.510;6.686;2023-07-29T09:18:49;96220.63;;;23.84;97.70
57644;BME280;43474;46.510;6.686;2023-07-29T09:21:25;96221.09;;;23.86;97.85
57644;BME280;43474;46.510;6.686;2023-07-29T09:23:52;96221.88;;;23.86;98.63
57644;BME280;43474;46.510;6.686;2023-07-29T09:26:27;96225.38;;;23.87;98.07
57644;BME280;43474;46.510;6.686;2023-07-29T09:28:57;96222.66;;;23.87;99.35
57644;BME280;43474;46.510;6.686;2023-07-29T09:31:25;96219.06;;;23.83;98.74
57644;BME280;43474;46.510;6.686;2023-07-29T09:33:58;96221.75;;;23.83;99.37
57644;BME280;43474;46.510;6.686;2023-07-29T09:36:25;96230.31;;;23.85;98.66
57644;BME280;43474;46.510;6.686;2023-07-29T09:38:56;96219.06;;;23.83;98.37
57644;BME280;43474;46.510;6.686;2023-07-29T09:41:25;96210.94;;;23.83;97.66
57644;BME280;43474;46.510;6.686;2023-07-29T09:43:56;96211.22;;;23.81;96.97
57644;BME280;43474;46.510;6.686;2023-07-29T09:46:24;96214.28;;;23.80;96.72
57644;BME280;43474;46.510;6.686;2023-07-29T09:48:53;96212.84;;;23.82;96.38
57644;BME280;43474;46.510;6.686;2023-07-29T09:51:21;96215.84;;;23.81;95.96
57644;BME280;43474;46.510;6.686;2023-07-29T09:53:48;96223.34;;;23.84;95.74
57644;BME280;43474;46.510;6.686;2023-07-29T09:56:15;96230.78;;;23.87;95.59
57644;BME280;43474;46.510;6.686;2023-07-29T09:58:46;96230.00;;;23.86;95.28
57644;BME280;43474;46.510;6.686;2023-07-29T10:01:13;96234.16;;;23.84;95.07
57644;BME280;43474;46.510;6.686;2023-07-29T10:03:40;96223.78;;;23.86;94.86
57644;BME280;43474;46.510;6.686;2023-07-29T10:06:06;96219.16;;;23.86;94.56
57644;BME280;43474;46.510;6.686;2023-07-29T10:08:33;96233.03;;;23.85;94.50
57644;BME280;43474;46.510;6.686;2023-07-29T10:11:02;96240.03;;;23.86;95.22
57644;BME280;43474;46.510;6.686;2023-07-29T10:13:28;96256.16;;;23.82;95.78
57644;BME280;43474;46.510;6.686;2023-07-29T10:15:54;96261.06;;;23.80;95.37
57644;BME280;43474;46.510;6.686;2023-07-29T10:18:22;96250.91;;;23.77;93.50
57644;BME280;43474;46.510;6.686;2023-07-29T10:20:51;96250.59;;;23.79;93.35
57644;BME280;43474;46.510;6.686;2023-07-29T10:23:18;96256.78;;;23.79;92.84
57644;BME280;43474;46.510;6.686;2023-07-29T10:25:51;96257.56;;;23.80;92.65
57644;BME280;43474;46.510;6.686;2023-07-29T10:28:20;96251.72;;;23.78;92.42
57644;BME280;43474;46.510;6.686;2023-07-29T10:30:49;96254.09;;;23.79;92.43
57644;BME280;43474;46.510;6.686;2023-07-29T10:33:15;96258.69;;;23.79;92.50
57644;BME280;43474;46.510;6.686;2023-07-29T10:35:42;96268.41;;;23.80;92.96
57644;BME280;43474;46.510;6.686;2023-07-29T10:38:08;96270.16;;;23.76;93.45
57644;BME280;43474;46.510;6.686;2023-07-29T10:40:49;96268.75;;;23.78;93.64
57644;BME280;43474;46.510;6.686;2023-07-29T10:43:23;96275.41;;;23.81;93.54
57644;BME280;43474;46.510;6.686;2023-07-29T10:45:49;96280.50;;;23.82;94.86
57644;BME280;43474;46.510;6.686;2023-07-29T10:54:08;96261.69;;;23.86;95.02
57644;BME280;43474;46.510;6.686;2023-07-29T10:56:36;96263.94;;;23.84;95.48
57644;BME280;43474;46.510;6.686;2023-07-29T11:01:39;96264.38;;;23.86;96.15
57644;BME280;43474;46.510;6.686;2023-07-29T11:12:36;96279.50;;;23.87;96.52
57644;BME280;43474;46.510;6.686;2023-07-29T11:15:13;96273.44;;;23.90;96.67
57644;BME280;43474;46.510;6.686;2023-07-29T11:17:42;96268.69;;;23.87;97.33
57644;BME280;43474;46.510;6.686;2023-07-29T11:20:09;96281.13;;;23.88;96.69
57644;BME280;43474;46.510;6.686;2023-07-29T11:22:36;96273.78;;;23.88;98.33
57644;BME280;43474;46.510;6.686;2023-07-29T11:25:02;96268.69;;;23.87;98.86
57644;BME280;43474;46.510;6.686;2023-07-29T11:27:28;96276.78;;;23.87;99.25
57644;BME280;43474;46.510;6.686;2023-07-29T11:30:01;96268.22;;;23.85;99.24
57644;BME280;43474;46.510;6.686;2023-07-29T11:32:27;96268.38;;;23.88;98.28
57644;BME280;43474;46.510;6.686;2023-07-29T11:34:53;96281.13;;;23.88;97.01
57644;BME280;43474;46.510;6.686;2023-07-29T11:37:19;96277.91;;;23.86;95.80
57644;BME280;43474;46.510;6.686;2023-07-29T11:39:46;96276.66;;;23.83;94.49
57644;BME280;43474;46.510;6.686;2023-07-29T11:42:13;96282.09;;;23.83;94.39
57644;BME280;43474;46.510;6.686;2023-07-29T11:44:39;96289.53;;;23.86;94.39
57644;BME280;43474;46.510;6.686;2023-07-29T11:47:06;96281.13;;;23.88;94.25
57644;BME280;43474;46.510;6.686;2023-07-29T11:49:33;96289.34;;;23.91;93.66
57644;BME280;43474;46.510;6.686;2023-07-29T11:51:59;96299.38;;;23.91;93.82
57644;BME280;43474;46.510;6.686;2023-07-29T11:54:25;96299.38;;;23.91;93.58
57644;BME280;43474;46.510;6.686;2023-07-29T11:56:51;96299.09;;;23.92;93.83
57644;BME280;43474;46.510;6.686;2023-07-29T11:59:17;96294.47;;;23.93;93.37
57644;BME280;43474;46.510;6.686;2023-07-29T12:01:42;96296.03;;;23.94;93.17
57644;BME280;43474;46.510;6.686;2023-07-29T12:04:08;96299.09;;;23.92;93.11
57644;BME280;43474;46.510;6.686;2023-07-29T12:06:35;96299.88;;;23.93;93.10
57644;BME280;43474;46.510;6.686;2023-07-29T12:09:00;96299.53;;;23.94;93.11
57644;BME280;43474;46.510;6.686;2023-07-29T12:11:26;96295.72;;;23.95;92.68
57644;BME280;43474;46.510;6.686;2023-07-29T12:13:55;96311.66;;;23.97;92.69
57644;BME280;43474;46.510;6.686;2023-07-29T12:16:21;96310.81;;;23.96;92.58
57644;BME280;43474;46.510;6.686;2023-07-29T12:18:46;96322.16;;;23.98;92.67
57644;BME280;43474;46.510;6.686;2023-07-29T12:21:14;96325.63;;;23.99;92.83
57644;BME280;43474;46.510;6.686;2023-07-29T12:23:40;96322.16;;;23.98;92.91
57644;BME280;43474;46.510;6.686;2023-07-29T12:26:05;96323.72;;;23.99;92.56
57644;BME280;43474;46.510;6.686;2023-07-29T12:28:31;96319.44;;;23.98;92.77
57644;BME280;43474;46.510;6.686;2023-07-29T12:30:58;96334.56;;;23.99;92.75
57644;BME280;43474;46.510;6.686;2023-07-29T12:33:31;96328.34;;;23.99;92.98
57644;BME280;43474;46.510;6.686;2023-07-29T12:35:56;96333.44;;;24.01;92.94
57644;BME280;43474;46.510;6.686;2023-07-29T12:38:22;96336.13;;;24.01;93.62
57644;BME280;43474;46.510;6.686;2023-07-29T12:40:48;96334.22;;;24.01;93.38
57644;BME280;43474;46.510;6.686;2023-07-29T12:43:13;96337.72;;;24.02;93.70
57644;BME280;43474;46.510;6.686;2023-07-29T12:45:39;96339.19;;;23.99;93.03
57644;BME280;43474;46.510;6.686;2023-07-29T12:48:09;96332.31;;;24.02;93.57
57644;BME280;43474;46.510;6.686;2023-07-29T12:50:35;96326.88;;;24.02;94.04
57644;BME280;43474;46.510;6.686;2023-07-29T12:53:01;96326.44;;;23.99;93.36
57644;BME280;43474;46.510;6.686;2023-07-29T12:55:27;96323.38;;;24.01;93.80
57644;BME280;43474;46.510;6.686;2023-07-29T12:57:52;96317.19;;;24.01;93.70
57644;BME280;43474;46.510;6.686;2023-07-29T13:00:18;96318.78;;;24.02;94.03
57644;BME280;43474;46.510;6.686;2023-07-29T13:02:43;96316.06;;;24.02;93.61
57644;BME280;43474;46.510;6.686;2023-07-29T13:05:10;96321.97;;;24.04;93.70
57644;BME280;43474;46.510;6.686;2023-07-29T13:07:40;96325.00;;;24.02;93.68
57644;BME280;43474;46.510;6.686;2023-07-29T13:10:06;96330.09;;;24.04;93.42
57644;BME280;43474;46.510;6.686;2023-07-29T13:12:32;96338.22;;;24.04;93.29
57644;BME280;43474;46.510;6.686;2023-07-29T13:14:58;96348.25;;;24.03;93.91
57644;BME280;43474;46.510;6.686;2023-07-29T13:17:23;96340.91;;;24.04;93.87
57644;BME280;43474;46.510;6.686;2023-07-29T13:19:49;96341.69;;;24.04;93.42